Argonia, Kansas
Current Conditions -  °F | °C
As of 4:53 AM on Friday 31 Oct 2014 (Local Time) from KICT Reporting Station
Overcast Overcast  
Wind Chill:   Ceiling: 1900
Heat Index:   Visibility: 10mi
Dew Point:   Wind: 15mph
Humidity: 71%   Direction: 360°N
Pressure: 30.36"   Gusts: 25mph
Location:  37.27°N, 97.77°W
Report Text: KICT 310953Z 36013G22KT 10SM OVC019 08/03 A3036 RMK AO2 SLP277 T00830033
Loading
Personal Weather Stations






























Interactive Weather Map
Tropical Storm Tracking
New forecast layout! Learn more

10-Day Weather Forecast

Advertisements
Track Severe Weather on mobile